Terminal Aerodrome Forecast
Issued by NWS

Home | Current Version | Previous Version | Text Only | Print | Product List | Glossary On
Versions: 1 2 3 4 5 6 7 8 9 10 11 12 13
909
FTUS41 KCAR 161127
TAFBHB
TAF
KBHB 161127Z 1612/1712 00000KT P6SM SCT250
     FM161500 24007KT P6SM SCT250
     FM161700 24011KT P6SM SCT250
     FM170900 32008KT P6SM FEW250=

USA.gov is the U.S. government's official web portal to all federal, state and local government web resources and services.